sensor_id;sensor_type;location;lat;lon;timestamp;pressure;altitude;pressure_sealevel;temperature;humidity
36726;BME280;44936;52.086;5.150;2023-01-27T00:01:44;103117.00;;;5.07;100.00
36726;BME280;44936;52.086;5.150;2023-01-27T00:04:09;103119.34;;;5.18;100.00
36726;BME280;44936;52.086;5.150;2023-01-27T00:06:35;103056.56;;;4.83;100.00
36726;BME280;44936;52.086;5.150;2023-01-27T00:09:00;103095.09;;;5.04;100.00
36726;BME280;44936;52.086;5.150;2023-01-27T00:11:25;103114.38;;;5.07;100.00
36726;BME280;44936;52.086;5.150;2023-01-27T00:14:10;103096.41;;;4.97;100.00
36726;BME280;44936;52.086;5.150;2023-01-27T00:16:36;103079.25;;;4.86;100.00
36726;BME280;44936;52.086;5.150;2023-01-27T00:19:01;103076.38;;;4.81;100.00
36726;BME280;44936;52.086;5.150;2023-01-27T00:21:26;103079.44;;;4.89;100.00
36726;BME280;44936;52.086;5.150;2023-01-27T00:24:13;103104.88;;;5.08;100.00
36726;BME280;44936;52.086;5.150;2023-01-27T00:27:05;103104.56;;;5.03;100.00
36726;BME280;44936;52.086;5.150;2023-01-27T00:29:33;103082.13;;;4.91;100.00
36726;BME280;44936;52.086;5.150;2023-01-27T00:31:59;103114.81;;;5.00;100.00
36726;BME280;44936;52.086;5.150;2023-01-27T00:34:43;103069.75;;;4.87;100.00
36726;BME280;44936;52.086;5.150;2023-01-27T00:37:08;103098.03;;;4.95;100.00
36726;BME280;44936;52.086;5.150;2023-01-27T00:39:33;103094.88;;;4.86;100.00
36726;BME280;44936;52.086;5.150;2023-01-27T00:41:59;103097.22;;;4.96;100.00
36726;BME280;44936;52.086;5.150;2023-01-27T00:44:24;103096.66;;;4.87;100.00
36726;BME280;44936;52.086;5.150;2023-01-27T00:46:49;103108.44;;;4.95;100.00
36726;BME280;44936;52.086;5.150;2023-01-27T00:49:15;103115.78;;;5.02;100.00
36726;BME280;44936;52.086;5.150;2023-01-27T00:51:41;103101.72;;;4.99;100.00
36726;BME280;44936;52.086;5.150;2023-01-27T00:54:07;103071.00;;;4.78;100.00
36726;BME280;44936;52.086;5.150;2023-01-27T00:56:33;103093.44;;;4.91;100.00
36726;BME280;44936;52.086;5.150;2023-01-27T00:58:59;103116.69;;;5.03;100.00
36726;BME280;44936;52.086;5.150;2023-01-27T01:01:24;103075.16;;;4.76;100.00
36726;BME280;44936;52.086;5.150;2023-01-27T01:03:50;103088.56;;;4.82;100.00
36726;BME280;44936;52.086;5.150;2023-01-27T01:06:17;103092.06;;;4.83;100.00
36726;BME280;44936;52.086;5.150;2023-01-27T01:08:42;103076.31;;;4.67;100.00
36726;BME280;44936;52.086;5.150;2023-01-27T01:11:11;103123.47;;;4.86;100.00
36726;BME280;44936;52.086;5.150;2023-01-27T01:13:37;103126.75;;;4.83;100.00
36726;BME280;44936;52.086;5.150;2023-01-27T01:16:11;103128.19;;;4.78;100.00
36726;BME280;44936;52.086;5.150;2023-01-27T01:18:37;103090.81;;;4.63;100.00
36726;BME280;44936;52.086;5.150;2023-01-27T01:21:03;103079.34;;;4.60;100.00
36726;BME280;44936;52.086;5.150;2023-01-27T01:23:31;103117.22;;;4.69;100.00
36726;BME280;44936;52.086;5.150;2023-01-27T01:25:57;103129.50;;;4.72;100.00
36726;BME280;44936;52.086;5.150;2023-01-27T01:28:23;103128.19;;;4.78;100.00
36726;BME280;44936;52.086;5.150;2023-01-27T01:30:48;103073.25;;;4.46;100.00
36726;BME280;44936;52.086;5.150;2023-01-27T01:33:14;103142.34;;;4.83;100.00
36726;BME280;44936;52.086;5.150;2023-01-27T01:35:40;103082.56;;;4.42;100.00
36726;BME280;44936;52.086;5.150;2023-01-27T01:38:05;103121.28;;;4.66;100.00
36726;BME280;44936;52.086;5.150;2023-01-27T01:40:31;103141.03;;;4.90;100.00
36726;BME280;44936;52.086;5.150;2023-01-27T01:45:50;103153.16;;;4.90;100.00
36726;BME280;44936;52.086;5.150;2023-01-27T01:50:51;103144.16;;;4.84;100.00
36726;BME280;44936;52.086;5.150;2023-01-27T01:53:20;103102.09;;;4.64;100.00
36726;BME280;44936;52.086;5.150;2023-01-27T01:55:51;103118.09;;;4.70;100.00
36726;BME280;44936;52.086;5.150;2023-01-27T01:58:17;103141.47;;;4.83;100.00
36726;BME280;44936;52.086;5.150;2023-01-27T02:00:45;103150.97;;;4.82;100.00
36726;BME280;44936;52.086;5.150;2023-01-27T02:03:11;103076.25;;;4.52;100.00
36726;BME280;44936;52.086;5.150;2023-01-27T02:05:39;103074.56;;;4.52;100.00
36726;BME280;44936;52.086;5.150;2023-01-27T02:08:20;103140.56;;;4.82;100.00
36726;BME280;44936;52.086;5.150;2023-01-27T02:10:49;103147.56;;;4.83;100.00
36726;BME280;44936;52.086;5.150;2023-01-27T02:13:14;103145.38;;;4.76;100.00
36726;BME280;44936;52.086;5.150;2023-01-27T02:15:40;103113.81;;;4.57;100.00
36726;BME280;44936;52.086;5.150;2023-01-27T02:18:06;103152.09;;;4.73;100.00
36726;BME280;44936;52.086;5.150;2023-01-27T02:20:51;103145.91;;;4.71;100.00
36726;BME280;44936;52.086;5.150;2023-01-27T02:28:11;103147.19;;;4.64;100.00
36726;BME280;44936;52.086;5.150;2023-01-27T02:30:37;103109.44;;;4.43;100.00
36726;BME280;44936;52.086;5.150;2023-01-27T02:33:08;103156.19;;;4.69;100.00
36726;BME280;44936;52.086;5.150;2023-01-27T02:35:38;103088.47;;;4.26;100.00
36726;BME280;44936;52.086;5.150;2023-01-27T02:38:10;103148.00;;;4.63;100.00
36726;BME280;44936;52.086;5.150;2023-01-27T02:40:37;103086.47;;;4.22;100.00
36726;BME280;44936;52.086;5.150;2023-01-27T02:43:04;103142.22;;;4.54;100.00
36726;BME280;44936;52.086;5.150;2023-01-27T02:45:29;103159.19;;;4.62;100.00
36726;BME280;44936;52.086;5.150;2023-01-27T02:47:55;103141.00;;;4.49;100.00
36726;BME280;44936;52.086;5.150;2023-01-27T02:50:20;103167.91;;;4.63;100.00
36726;BME280;44936;52.086;5.150;2023-01-27T02:52:46;103168.38;;;4.57;100.00
36726;BME280;44936;52.086;5.150;2023-01-27T02:55:11;103127.94;;;4.34;100.00
36726;BME280;44936;52.086;5.150;2023-01-27T02:57:37;103163.72;;;4.51;100.00
36726;BME280;44936;52.086;5.150;2023-01-27T03:00:02;103121.25;;;4.24;100.00
36726;BME280;44936;52.086;5.150;2023-01-27T03:02:28;103134.81;;;4.20;100.00
36726;BME280;44936;52.086;5.150;2023-01-27T03:04:58;103147.41;;;4.28;100.00
36726;BME280;44936;52.086;5.150;2023-01-27T03:07:24;103156.31;;;4.31;100.00
36726;BME280;44936;52.086;5.150;2023-01-27T03:09:50;103147.41;;;4.28;100.00
36726;BME280;44936;52.086;5.150;2023-01-27T03:12:15;103121.56;;;4.16;100.00
36726;BME280;44936;52.086;5.150;2023-01-27T03:14:51;103158.91;;;4.31;100.00
36726;BME280;44936;52.086;5.150;2023-01-27T03:17:37;103186.78;;;4.47;100.00
36726;BME280;44936;52.086;5.150;2023-01-27T03:20:21;103154.91;;;4.23;100.00
36726;BME280;44936;52.086;5.150;2023-01-27T03:22:48;103184.81;;;4.43;100.00
36726;BME280;44936;52.086;5.150;2023-01-27T03:25:13;103172.50;;;4.27;100.00
36726;BME280;44936;52.086;5.150;2023-01-27T03:27:39;103195.38;;;4.46;100.00
36726;BME280;44936;52.086;5.150;2023-01-27T03:30:05;103168.41;;;4.31;100.00
36726;BME280;44936;52.086;5.150;2023-01-27T03:32:31;103165.81;;;4.17;100.00
36726;BME280;44936;52.086;5.150;2023-01-27T03:34:57;103206.78;;;4.35;100.00
36726;BME280;44936;52.086;5.150;2023-01-27T03:37:23;103170.78;;;4.14;100.00
36726;BME280;44936;52.086;5.150;2023-01-27T03:40:08;103199.00;;;4.35;100.00
36726;BME280;44936;52.086;5.150;2023-01-27T03:42:53;103195.19;;;4.30;100.00
36726;BME280;44936;52.086;5.150;2023-01-27T03:45:37;103203.69;;;4.27;100.00
36726;BME280;44936;52.086;5.150;2023-01-27T03:48:21;103205.16;;;4.23;100.00
36726;BME280;44936;52.086;5.150;2023-01-27T03:50:46;103208.34;;;4.19;100.00
36726;BME280;44936;52.086;5.150;2023-01-27T03:53:20;103213.97;;;4.25;100.00
36726;BME280;44936;52.086;5.150;2023-01-27T03:55:45;103222.16;;;4.18;100.00
36726;BME280;44936;52.086;5.150;2023-01-27T03:58:28;103157.75;;;3.88;100.00
36726;BME280;44936;52.086;5.150;2023-01-27T04:00:56;103202.84;;;4.15;100.00
36726;BME280;44936;52.086;5.150;2023-01-27T04:03:26;103174.38;;;4.03;100.00
36726;BME280;44936;52.086;5.150;2023-01-27T04:06:14;103209.16;;;4.18;100.00
36726;BME280;44936;52.086;5.150;2023-01-27T04:08:58;103208.44;;;4.08;100.00
36726;BME280;44936;52.086;5.150;2023-01-27T04:11:24;103199.25;;;4.00;100.00
36726;BME280;44936;52.086;5.150;2023-01-27T04:14:09;103162.38;;;3.92;100.00
36726;BME280;44936;52.086;5.150;2023-01-27T04:16:34;103150.81;;;4.00;100.00
36726;BME280;44936;52.086;5.150;2023-01-27T04:19:05;103189.84;;;4.02;100.00
36726;BME280;44936;52.086;5.150;2023-01-27T04:21:31;103212.66;;;4.19;100.00
36726;BME280;44936;52.086;5.150;2023-01-27T04:23:57;103225.25;;;4.26;100.00
36726;BME280;44936;52.086;5.150;2023-01-27T04:26:23;103190.38;;;4.09;100.00
36726;BME280;44936;52.086;5.150;2023-01-27T04:28:49;103200.84;;;4.11;100.00
36726;BME280;44936;52.086;5.150;2023-01-27T04:31:15;103199.34;;;4.01;100.00
36726;BME280;44936;52.086;5.150;2023-01-27T04:33:42;103169.84;;;3.87;100.00
36726;BME280;44936;52.086;5.150;2023-01-27T04:36:08;103235.56;;;4.24;100.00
36726;BME280;44936;52.086;5.150;2023-01-27T04:38:33;103189.31;;;3.94;100.00
36726;BME280;44936;52.086;5.150;2023-01-27T04:40:59;103230.13;;;4.21;100.00
36726;BME280;44936;52.086;5.150;2023-01-27T04:43:24;103177.84;;;3.90;100.00
36726;BME280;44936;52.086;5.150;2023-01-27T04:45:49;103194.34;;;4.04;100.00
36726;BME280;44936;52.086;5.150;2023-01-27T04:48:15;103206.38;;;4.15;100.00
36726;BME280;44936;52.086;5.150;2023-01-27T04:50:40;103187.16;;;4.00;100.00
36726;BME280;44936;52.086;5.150;2023-01-27T04:53:06;103195.75;;;3.99;100.00
36726;BME280;44936;52.086;5.150;2023-01-27T04:55:32;103196.13;;;4.05;100.00
36726;BME280;44936;52.086;5.150;2023-01-27T04:58:20;103229.38;;;4.36;100.00
36726;BME280;44936;52.086;5.150;2023-01-27T05:00:45;103229.66;;;4.27;100.00
36726;BME280;44936;52.086;5.150;2023-01-27T05:03:11;103213.34;;;4.16;100.00
36726;BME280;44936;52.086;5.150;2023-01-27T05:05:37;103187.97;;;4.12;100.00
36726;BME280;44936;52.086;5.150;2023-01-27T05:08:04;103205.06;;;4.09;100.00
36726;BME280;44936;52.086;5.150;2023-01-27T05:10:30;103236.94;;;4.19;100.00
36726;BME280;44936;52.086;5.150;2023-01-27T05:13:17;103175.16;;;3.89;100.00
36726;BME280;44936;52.086;5.150;2023-01-27T05:16:10;103246.94;;;4.26;100.00
36726;BME280;44936;52.086;5.150;2023-01-27T05:18:37;103228.81;;;4.15;100.00
36726;BME280;44936;52.086;5.150;2023-01-27T05:21:03;103226.34;;;4.16;100.00
36726;BME280;44936;52.086;5.150;2023-01-27T05:23:28;103248.66;;;4.26;100.00
36726;BME280;44936;52.086;5.150;2023-01-27T05:26:14;103249.16;;;4.34;100.00
36726;BME280;44936;52.086;5.150;2023-01-27T05:28:52;103255.41;;;4.24;100.00
36726;BME280;44936;52.086;5.150;2023-01-27T05:31:20;103226.19;;;4.02;100.00
36726;BME280;44936;52.086;5.150;2023-01-27T05:33:47;103226.72;;;4.09;100.00
36726;BME280;44936;52.086;5.150;2023-01-27T05:36:14;103241.31;;;4.20;100.00
36726;BME280;44936;52.086;5.150;2023-01-27T05:38:41;103186.31;;;3.88;100.00
36726;BME280;44936;52.086;5.150;2023-01-27T05:41:08;103259.22;;;4.29;100.00
36726;BME280;44936;52.086;5.150;2023-01-27T05:43:35;103185.53;;;3.89;100.00
36726;BME280;44936;52.086;5.150;2023-01-27T05:48:34;103249.72;;;4.30;100.00
36726;BME280;44936;52.086;5.150;2023-01-27T05:51:01;103249.03;;;4.19;100.00
36726;BME280;44936;52.086;5.150;2023-01-27T05:53:27;103243.81;;;4.19;100.00
36726;BME280;44936;52.086;5.150;2023-01-27T05:55:52;103225.50;;;4.04;100.00
36726;BME280;44936;52.086;5.150;2023-01-27T05:58:19;103203.91;;;3.92;100.00
36726;BME280;44936;52.086;5.150;2023-01-27T06:00:49;103237.41;;;4.14;100.00
36726;BME280;44936;52.086;5.150;2023-01-27T06:03:14;103247.31;;;4.19;100.00
36726;BME280;44936;52.086;5.150;2023-01-27T06:05:54;103247.13;;;4.16;100.00
36726;BME280;44936;52.086;5.150;2023-01-27T06:08:23;103258.31;;;4.29;100.00
36726;BME280;44936;52.086;5.150;2023-01-27T06:10:50;103270.31;;;4.26;100.00
36726;BME280;44936;52.086;5.150;2023-01-27T06:13:16;103267.13;;;4.31;100.00
36726;BME280;44936;52.086;5.150;2023-01-27T06:15:43;103233.63;;;4.09;100.00
36726;BME280;44936;52.086;5.150;2023-01-27T06:18:10;103213.94;;;3.99;100.00
36726;BME280;44936;52.086;5.150;2023-01-27T06:20:36;103234.09;;;4.03;100.00
36726;BME280;44936;52.086;5.150;2023-01-27T06:23:02;103246.28;;;4.04;100.00
36726;BME280;44936;52.086;5.150;2023-01-27T06:25:28;103258.59;;;4.20;100.00
36726;BME280;44936;52.086;5.150;2023-01-27T06:27:54;103256.91;;;4.07;100.00
36726;BME280;44936;52.086;5.150;2023-01-27T06:30:20;103250.00;;;4.08;100.00
36726;BME280;44936;52.086;5.150;2023-01-27T06:32:45;103272.41;;;4.19;100.00
36726;BME280;44936;52.086;5.150;2023-01-27T06:35:11;103270.78;;;4.21;100.00
36726;BME280;44936;52.086;5.150;2023-01-27T06:37:36;103253.78;;;4.13;100.00
36726;BME280;44936;52.086;5.150;2023-01-27T06:40:03;103258.97;;;4.13;100.00
36726;BME280;44936;52.086;5.150;2023-01-27T06:42:29;103296.31;;;4.26;100.00
36726;BME280;44936;52.086;5.150;2023-01-27T06:44:54;103242.66;;;3.89;100.00
36726;BME280;44936;52.086;5.150;2023-01-27T06:47:20;103258.88;;;3.98;100.00
36726;BME280;44936;52.086;5.150;2023-01-27T06:49:45;103222.16;;;3.80;100.00
36726;BME280;44936;52.086;5.150;2023-01-27T06:52:10;103224.06;;;3.83;100.00
36726;BME280;44936;52.086;5.150;2023-01-27T06:54:36;103277.25;;;4.14;100.00
36726;BME280;44936;52.086;5.150;2023-01-27T06:57:01;103283.97;;;4.11;100.00
36726;BME280;44936;52.086;5.150;2023-01-27T06:59:27;103229.81;;;3.79;100.00
36726;BME280;44936;52.086;5.150;2023-01-27T07:01:53;103255.47;;;3.99;100.00
36726;BME280;44936;52.086;5.150;2023-01-27T07:04:19;103266.66;;;3.98;100.00
36726;BME280;44936;52.086;5.150;2023-01-27T07:06:44;103234.00;;;3.77;100.00
36726;BME280;44936;52.086;5.150;2023-01-27T07:09:09;103231.50;;;3.78;100.00
36726;BME280;44936;52.086;5.150;2023-01-27T07:11:35;103277.59;;;3.94;100.00
36726;BME280;44936;52.086;5.150;2023-01-27T07:14:01;103276.63;;;4.05;100.00
36726;BME280;44936;52.086;5.150;2023-01-27T07:16:27;103229.31;;;3.71;100.00
36726;BME280;44936;52.086;5.150;2023-01-27T07:18:52;103251.19;;;3.75;100.00
36726;BME280;44936;52.086;5.150;2023-01-27T07:21:18;103273.22;;;3.93;100.00
36726;BME280;44936;52.086;5.150;2023-01-27T07:23:43;103262.72;;;3.91;100.00
36726;BME280;44936;52.086;5.150;2023-01-27T07:26:09;103267.06;;;3.79;100.00
36726;BME280;44936;52.086;5.150;2023-01-27T07:28:39;103273.75;;;3.76;100.00
36726;BME280;44936;52.086;5.150;2023-01-27T07:31:04;103306.16;;;3.94;100.00
36726;BME280;44936;52.086;5.150;2023-01-27T07:33:30;103247.06;;;3.65;100.00
36726;BME280;44936;52.086;5.150;2023-01-27T07:35:55;103285.56;;;3.84;100.00
36726;BME280;44936;52.086;5.150;2023-01-27T07:38:20;103321.19;;;3.98;100.00
36726;BME280;44936;52.086;5.150;2023-01-27T07:40:46;103326.25;;;3.96;100.00
36726;BME280;44936;52.086;5.150;2023-01-27T07:43:11;103320.16;;;3.96;100.00
36726;BME280;44936;52.086;5.150;2023-01-27T07:45:37;103282.06;;;3.83;100.00
36726;BME280;44936;52.086;5.150;2023-01-27T07:48:06;103292.66;;;3.86;100.00
36726;BME280;44936;52.086;5.150;2023-01-27T07:50:32;103318.00;;;4.02;100.00
36726;BME280;44936;52.086;5.150;2023-01-27T07:52:58;103263.09;;;3.59;100.00
36726;BME280;44936;52.086;5.150;2023-01-27T07:55:24;103284.03;;;3.74;100.00
36726;BME280;44936;52.086;5.150;2023-01-27T07:57:52;103273.91;;;3.65;100.00
36726;BME280;44936;52.086;5.150;2023-01-27T08:00:18;103298.28;;;3.92;100.00
36726;BME280;44936;52.086;5.150;2023-01-27T08:02:49;103298.09;;;3.89;100.00
36726;BME280;44936;52.086;5.150;2023-01-27T08:05:15;103321.91;;;4.09;100.00
36726;BME280;44936;52.086;5.150;2023-01-27T08:07:40;103269.19;;;3.85;100.00
36726;BME280;44936;52.086;5.150;2023-01-27T08:10:06;103304.38;;;3.93;100.00
36726;BME280;44936;52.086;5.150;2023-01-27T08:12:31;103321.91;;;4.09;100.00
36726;BME280;44936;52.086;5.150;2023-01-27T08:14:57;103308.19;;;3.98;100.00
36726;BME280;44936;52.086;5.150;2023-01-27T08:17:22;103297.81;;;3.98;100.00
36726;BME280;44936;52.086;5.150;2023-01-27T08:19:48;103302.75;;;4.07;100.00
36726;BME280;44936;52.086;5.150;2023-01-27T08:22:16;103278.59;;;3.96;100.00
36726;BME280;44936;52.086;5.150;2023-01-27T08:24:45;103238.53;;;3.54;100.00
36726;BME280;44936;52.086;5.150;2023-01-27T08:27:10;103322.91;;;3.86;100.00
36726;BME280;44936;52.086;5.150;2023-01-27T08:29:36;103294.88;;;3.68;100.00
36726;BME280;44936;52.086;5.150;2023-01-27T08:32:01;103268.72;;;3.29;100.00
36726;BME280;44936;52.086;5.150;2023-01-27T08:34:27;103300.25;;;3.35;100.00
36726;BME280;44936;52.086;5.150;2023-01-27T08:36:52;103343.44;;;3.58;100.00
36726;BME280;44936;52.086;5.150;2023-01-27T08:39:17;103303.22;;;3.28;100.00
36726;BME280;44936;52.086;5.150;2023-01-27T08:41:43;103273.94;;;3.05;100.00
36726;BME280;44936;52.086;5.150;2023-01-27T08:44:12;103273.38;;;2.98;100.00
36726;BME280;44936;52.086;5.150;2023-01-27T08:46:39;103332.97;;;3.33;100.00
36726;BME280;44936;52.086;5.150;2023-01-27T08:49:04;103311.00;;;3.28;100.00
36726;BME280;44936;52.086;5.150;2023-01-27T08:51:29;103304.56;;;3.23;100.00
36726;BME280;44936;52.086;5.150;2023-01-27T08:53:55;103332.03;;;3.44;100.00
36726;BME280;44936;52.086;5.150;2023-01-27T08:56:21;103326.84;;;3.44;100.00
36726;BME280;44936;52.086;5.150;2023-01-27T08:58:47;103302.44;;;3.29;100.00
36726;BME280;44936;52.086;5.150;2023-01-27T09:01:13;103304.34;;;3.31;100.00
36726;BME280;44936;52.086;5.150;2023-01-27T09:03:39;103298.94;;;3.17;100.00
36726;BME280;44936;52.086;5.150;2023-01-27T09:06:07;103334.22;;;3.38;100.00
36726;BME280;44936;52.086;5.150;2023-01-27T09:08:32;103310.69;;;3.11;100.00
36726;BME280;44936;52.086;5.150;2023-01-27T09:10:58;103339.06;;;3.33;100.00
36726;BME280;44936;52.086;5.150;2023-01-27T09:13:23;103321.50;;;3.29;100.00
36726;BME280;44936;52.086;5.150;2023-01-27T09:15:52;103319.69;;;3.17;100.00
36726;BME280;44936;52.086;5.150;2023-01-27T09:18:18;103339.06;;;3.33;100.00
36726;BME280;44936;52.086;5.150;2023-01-27T09:20:43;103378.72;;;3.67;100.00
36726;BME280;44936;52.086;5.150;2023-01-27T09:23:09;103338.50;;;3.37;100.00
36726;BME280;44936;52.086;5.150;2023-01-27T09:25:34;103327.13;;;3.24;100.00
36726;BME280;44936;52.086;5.150;2023-01-27T09:28:00;103371.31;;;3.49;100.00
36726;BME280;44936;52.086;5.150;2023-01-27T09:30:26;103350.59;;;3.37;100.00
36726;BME280;44936;52.086;5.150;2023-01-27T09:32:58;103333.91;;;3.22;100.00
36726;BME280;44936;52.086;5.150;2023-01-27T09:35:34;103334.22;;;3.26;100.00
36726;BME280;44936;52.086;5.150;2023-01-27T09:38:01;103399.69;;;3.70;100.00
36726;BME280;44936;52.086;5.150;2023-01-27T09:40:29;103390.91;;;3.68;100.00
36726;BME280;44936;52.086;5.150;2023-01-27T09:43:03;103375.69;;;3.61;100.00
36726;BME280;44936;52.086;5.150;2023-01-27T09:46:04;103383.22;;;3.70;100.00
36726;BME280;44936;52.086;5.150;2023-01-27T09:48:55;103379.97;;;3.73;100.00
36726;BME280;44936;52.086;5.150;2023-01-27T09:57:13;103312.63;;;3.51;100.00
36726;BME280;44936;52.086;5.150;2023-01-27T09:59:56;103373.25;;;3.88;100.00
36726;BME280;44936;52.086;5.150;2023-01-27T10:11:13;103353.38;;;3.88;100.00
36726;BME280;44936;52.086;5.150;2023-01-27T10:22:08;103402.00;;;4.28;100.00
36726;BME280;44936;52.086;5.150;2023-01-27T10:27:12;103377.47;;;4.36;100.00
36726;BME280;44936;52.086;5.150;2023-01-27T10:29:44;103364.94;;;4.55;100.00
36726;BME280;44936;52.086;5.150;2023-01-27T10:32:19;103384.19;;;4.83;100.00
36726;BME280;44936;52.086;5.150;2023-01-27T10:37:58;103374.50;;;5.21;100.00
36726;BME280;44936;52.086;5.150;2023-01-27T10:40:34;103307.88;;;4.83;100.00
36726;BME280;44936;52.086;5.150;2023-01-27T10:49:02;103373.72;;;5.22;100.00
36726;BME280;44936;52.086;5.150;2023-01-27T10:51:34;103330.50;;;4.97;100.00
36726;BME280;44936;52.086;5.150;2023-01-27T10:54:20;103352.09;;;5.09;100.00
36726;BME280;44936;52.086;5.150;2023-01-27T10:57:00;103371.31;;;5.25;100.00
36726;BME280;44936;52.086;5.150;2023-01-27T10:59:50;103376.91;;;5.31;100.00
36726;BME280;44936;52.086;5.150;2023-01-27T11:02:32;103354.19;;;5.15;100.00
36726;BME280;44936;52.086;5.150;2023-01-27T11:05:06;103335.91;;;5.14;100.00
36726;BME280;44936;52.086;5.150;2023-01-27T11:07:43;103352.59;;;5.17;100.00
36726;BME280;44936;52.086;5.150;2023-01-27T11:10:17;103295.66;;;4.82;100.00
36726;BME280;44936;52.086;5.150;2023-01-27T11:12:47;103366.59;;;5.19;100.00
36726;BME280;44936;52.086;5.150;2023-01-27T11:15:31;103297.78;;;4.88;100.00
36726;BME280;44936;52.086;5.150;2023-01-27T11:18:17;103343.41;;;5.22;100.00
36726;BME280;44936;52.086;5.150;2023-01-27T11:20:49;103369.41;;;5.35;100.00
36726;BME280;44936;52.086;5.150;2023-01-27T11:23:18;103354.50;;;5.33;100.00
36726;BME280;44936;52.086;5.150;2023-01-27T11:25:54;103297.19;;;5.05;100.00
36726;BME280;44936;52.086;5.150;2023-01-27T11:28:39;103347.19;;;5.40;100.00
36726;BME280;44936;52.086;5.150;2023-01-27T11:34:04;103292.97;;;5.07;100.00
36726;BME280;44936;52.086;5.150;2023-01-27T11:36:32;103306.38;;;5.13;100.00
36726;BME280;44936;52.086;5.150;2023-01-27T11:38:58;103317.97;;;5.18;100.00
36726;BME280;44936;52.086;5.150;2023-01-27T11:41:28;103324.78;;;5.16;100.00
36726;BME280;44936;52.086;5.150;2023-01-27T11:43:56;103355.06;;;5.29;100.00
36726;BME280;44936;52.086;5.150;2023-01-27T11:46:22;103320.38;;;5.15;100.00
36726;BME280;44936;52.086;5.150;2023-01-27T11:48:50;103270.44;;;4.94;100.00
36726;BME280;44936;52.086;5.150;2023-01-27T11:51:21;103277.78;;;4.87;100.00
36726;BME280;44936;52.086;5.150;2023-01-27T11:56:26;103310.69;;;4.99;100.00
36726;BME280;44936;52.086;5.150;2023-01-27T11:59:00;103317.88;;;5.03;100.00
36726;BME280;44936;52.086;5.150;2023-01-27T12:01:39;103277.38;;;4.80;100.00
36726;BME280;44936;52.086;5.150;2023-01-27T12:04:13;103277.66;;;4.85;100.00
36726;BME280;44936;52.086;5.150;2023-01-27T12:06:44;103306.38;;;5.00;100.00
36726;BME280;44936;52.086;5.150;2023-01-27T12:09:38;103283.66;;;4.84;100.00
36726;BME280;44936;52.086;5.150;2023-01-27T12:14:58;103312.16;;;5.09;100.00
36726;BME280;44936;52.086;5.150;2023-01-27T12:17:38;103309.66;;;5.10;100.00
36726;BME280;44936;52.086;5.150;2023-01-27T12:20:25;103326.56;;;5.17;100.00
36726;BME280;44936;52.086;5.150;2023-01-27T12:22:55;103275.66;;;4.94;100.00
36726;BME280;44936;52.086;5.150;2023-01-27T12:25:26;103265.78;;;4.89;100.00
36726;BME280;44936;52.086;5.150;2023-01-27T12:27:58;103264.47;;;4.95;100.00
36726;BME280;44936;52.086;5.150;2023-01-27T12:30:26;103333.09;;;5.24;100.00
36726;BME280;44936;52.086;5.150;2023-01-27T12:32:53;103271.75;;;5.01;100.00
36726;BME280;44936;52.086;5.150;2023-01-27T12:35:32;103299.34;;;5.12;100.00
36726;BME280;44936;52.086;5.150;2023-01-27T12:38:04;103321.38;;;5.30;100.00
36726;BME280;44936;52.086;5.150;2023-01-27T12:40:32;103260.94;;;5.08;100.00
36726;BME280;44936;52.086;5.150;2023-01-27T12:45:31;103280.19;;;5.38;100.00
36726;BME280;44936;52.086;5.150;2023-01-27T12:50:39;103232.13;;;5.46;100.00
36726;BME280;44936;52.086;5.150;2023-01-27T12:53:10;103265.28;;;5.77;100.00
36726;BME280;44936;52.086;5.150;2023-01-27T12:58:34;103266.91;;;5.89;100.00
36726;BME280;44936;52.086;5.150;2023-01-27T13:03:43;103246.50;;;5.82;100.00
36726;BME280;44936;52.086;5.150;2023-01-27T13:06:14;103225.03;;;5.72;100.00
36726;BME280;44936;52.086;5.150;2023-01-27T13:08:41;103233.38;;;5.66;100.00
36726;BME280;44936;52.086;5.150;2023-01-27T13:11:07;103228.34;;;5.69;100.00
36726;BME280;44936;52.086;5.150;2023-01-27T13:13:33;103197.47;;;5.47;100.00
36726;BME280;44936;52.086;5.150;2023-01-27T13:16:25;103240.47;;;5.68;100.00
36726;BME280;44936;52.086;5.150;2023-01-27T13:19:00;103246.06;;;5.75;100.00
36726;BME280;44936;52.086;5.150;2023-01-27T13:21:35;103230.22;;;5.57;100.00
36726;BME280;44936;52.086;5.150;2023-01-27T13:24:09;103246.72;;;5.57;100.00
36726;BME280;44936;52.086;5.150;2023-01-27T13:26:37;103247.47;;;5.42;100.00
36726;BME280;44936;52.086;5.150;2023-01-27T13:32:03;103278.31;;;5.63;100.00
36726;BME280;44936;52.086;5.150;2023-01-27T13:34:37;103225.28;;;5.20;100.00
36726;BME280;44936;52.086;5.150;2023-01-27T13:39:49;103235.03;;;5.09;100.00
36726;BME280;44936;52.086;5.150;2023-01-27T13:42:34;103274.72;;;5.33;100.00
36726;BME280;44936;52.086;5.150;2023-01-27T13:45:04;103234.25;;;4.97;100.00
36726;BME280;44936;52.086;5.150;2023-01-27T13:47:50;103282.94;;;5.26;100.00
36726;BME280;44936;52.086;5.150;2023-01-27T13:53:00;103237.34;;;4.92;100.00
36726;BME280;44936;52.086;5.150;2023-01-27T13:58:41;103315.06;;;5.27;100.00
36726;BME280;44936;52.086;5.150;2023-01-27T14:01:20;103281.56;;;5.05;100.00
36726;BME280;44936;52.086;5.150;2023-01-27T14:15:02;103262.88;;;4.84;100.00
36726;BME280;44936;52.086;5.150;2023-01-27T14:17:38;103313.38;;;5.01;100.00
36726;BME280;44936;52.086;5.150;2023-01-27T14:20:13;103323.59;;;4.98;100.00
36726;BME280;44936;52.086;5.150;2023-01-27T14:28:34;103340.91;;;4.97;100.00
36726;BME280;44936;52.086;5.150;2023-01-27T14:31:13;103301.34;;;4.76;100.00
36726;BME280;44936;52.086;5.150;2023-01-27T14:33:56;103292.16;;;4.55;100.00
36726;BME280;44936;52.086;5.150;2023-01-27T14:36:41;103352.97;;;4.83;100.00
36726;BME280;44936;52.086;5.150;2023-01-27T14:39:26;103350.59;;;4.87;100.00